Terminal Aerodrome Forecast
Issued by NWS

Home | Current Version | Previous Version | Text Only | Print | Product List | Glossary On
Versions: 1 2 3 4 5 6 7 8 9 10 11 12 13 14 15 16 17 18 19
000
FTUS44 KBMX 191134 CCA
TAFEET
TAF COR
KEET 191134Z 1912/2012 00000KT 3SM BR BKN025
      TEMPO 1912/1914 2SM BR BKN005
     FM191500 34004KT P6SM SCT035
     FM200000 00000KT P6SM SKC=

USA.gov is the U.S. government's official web portal to all federal, state and local government web resources and services.